createdAt,value
2023-05-10T00:00:03.323Z,0.20
2023-05-10T00:02:41.349Z,0.20
2023-05-10T00:05:10.489Z,0.20
2023-05-10T00:07:37.935Z,0.20
2023-05-10T00:10:05.701Z,0.30
2023-05-10T00:12:33.164Z,0.25
2023-05-10T00:15:00.638Z,0.30
2023-05-10T00:17:28.322Z,0.20
2023-05-10T00:19:56.852Z,0.20
2023-05-10T00:22:25.735Z,0.20
2023-05-10T00:24:53.141Z,0.20
2023-05-10T00:27:20.604Z,0.20
2023-05-10T00:29:48.049Z,0.20
2023-05-10T00:32:15.669Z,0.30
2023-05-10T00:34:44.304Z,0.20
2023-05-10T00:37:12.974Z,0.20
2023-05-10T00:39:41.779Z,0.22
2023-05-10T00:42:09.241Z,0.20
2023-05-10T00:44:36.717Z,0.22
2023-05-10T00:47:04.200Z,0.30
2023-05-10T00:49:32.167Z,0.20
2023-05-10T00:51:59.771Z,0.22
2023-05-10T00:54:27.684Z,0.20
2023-05-10T00:56:57.845Z,0.20
2023-05-10T00:59:25.681Z,0.22
2023-05-10T01:01:53.900Z,0.20
2023-05-10T01:04:26.331Z,0.20
2023-05-10T01:06:54.348Z,0.20
2023-05-10T01:09:21.939Z,0.20
2023-05-10T01:11:49.607Z,0.20
2023-05-10T01:14:19.893Z,0.30
2023-05-10T01:16:48.301Z,0.20
2023-05-10T01:19:20.185Z,0.30
2023-05-10T01:21:51.601Z,0.28
2023-05-10T01:24:42.814Z,0.25
2023-05-10T01:27:19.601Z,0.30
2023-05-10T01:30:13.658Z,0.20
2023-05-10T01:32:45.657Z,0.20
2023-05-10T01:35:16.929Z,0.20
2023-05-10T01:37:46.498Z,0.20
2023-05-10T01:40:20.195Z,0.20
2023-05-10T01:42:49.780Z,0.30
2023-05-10T01:45:20.237Z,0.30
2023-05-10T01:47:52.307Z,0.20
2023-05-10T01:50:20.602Z,0.28
2023-05-10T01:52:51.826Z,0.20
2023-05-10T01:55:21.306Z,0.20
2023-05-10T01:57:50.048Z,0.30
2023-05-10T02:00:18.284Z,0.30
2023-05-10T02:02:47.410Z,0.30
2023-05-10T02:05:17.156Z,0.30
2023-05-10T02:07:45.353Z,0.30
2023-05-10T02:10:13.564Z,0.20
2023-05-10T02:12:42.941Z,0.20
2023-05-10T02:15:11.136Z,0.30
2023-05-10T02:17:39.535Z,0.20
2023-05-10T02:20:08.666Z,0.20
2023-05-10T02:22:37.851Z,0.30
2023-05-10T02:25:05.856Z,0.20
2023-05-10T02:27:33.528Z,0.30
2023-05-10T02:30:01.921Z,0.30
2023-05-10T02:32:29.654Z,0.20
2023-05-10T02:34:58.107Z,0.20
2023-05-10T02:37:26.047Z,0.20
2023-05-10T02:39:56.940Z,0.20
2023-05-10T02:42:25.948Z,0.20
2023-05-10T02:44:54.796Z,0.30
2023-05-10T02:47:22.374Z,0.25
2023-05-10T02:49:49.983Z,0.30
2023-05-10T02:52:18.525Z,0.30
2023-05-10T02:54:47.351Z,0.28
2023-05-10T02:57:19.071Z,0.20
2023-05-10T02:59:47.069Z,0.30
2023-05-10T03:02:14.809Z,0.25
2023-05-10T03:04:42.383Z,0.30
2023-05-10T03:07:10.351Z,0.30
2023-05-10T03:09:38.130Z,0.30
2023-05-10T03:12:06.609Z,0.20
2023-05-10T03:14:51.142Z,0.30
2023-05-10T03:17:23.066Z,0.25
2023-05-10T03:19:53.579Z,0.30
2023-05-10T03:22:23.358Z,0.30
2023-05-10T03:24:53.271Z,0.30
2023-05-10T03:27:22.128Z,0.30
2023-05-10T03:29:52.341Z,0.32
2023-05-10T03:32:19.811Z,0.30
2023-05-10T03:34:47.394Z,0.25
2023-05-10T03:37:16.002Z,0.30
2023-05-10T03:39:43.477Z,0.30
2023-05-10T03:42:12.746Z,0.30
2023-05-10T03:44:40.507Z,0.30
2023-05-10T03:47:09.418Z,0.22
2023-05-10T03:49:37.088Z,0.30
2023-05-10T03:52:06.181Z,0.30
2023-05-10T03:54:34.098Z,0.20
2023-05-10T03:57:02.192Z,0.20
2023-05-10T03:59:30.826Z,0.20
2023-05-10T04:01:58.437Z,0.30
2023-05-10T04:04:27.362Z,0.30
2023-05-10T04:06:55.802Z,0.20
2023-05-10T04:09:23.364Z,0.20
2023-05-10T04:11:50.837Z,0.30
2023-05-10T04:14:18.446Z,0.20
2023-05-10T04:16:45.984Z,0.28
2023-05-10T04:19:13.526Z,0.20
2023-05-10T04:21:42.356Z,0.30
2023-05-10T04:24:09.943Z,0.20
2023-05-10T04:26:37.543Z,0.20
2023-05-10T04:29:04.954Z,0.30
2023-05-10T04:31:32.385Z,0.20
2023-05-10T04:33:59.794Z,0.40
2023-05-10T04:36:27.282Z,0.20
2023-05-10T04:38:56.121Z,0.20
2023-05-10T04:41:23.520Z,0.30
2023-05-10T04:43:51.085Z,0.20
2023-05-10T04:46:18.586Z,0.20
2023-05-10T04:48:46.028Z,0.20
2023-05-10T04:51:13.435Z,0.20
2023-05-10T04:53:41.868Z,0.20
2023-05-10T04:56:11.818Z,0.30
2023-05-10T04:58:39.688Z,0.30
2023-05-10T05:01:07.975Z,0.30
2023-05-10T05:03:35.483Z,0.28
2023-05-10T05:06:03.057Z,0.20
2023-05-10T05:08:30.470Z,0.20
2023-05-10T05:10:57.876Z,0.20
2023-05-10T05:13:26.810Z,0.30
2023-05-10T05:15:54.427Z,0.20
2023-05-10T05:18:22.007Z,0.20
2023-05-10T05:20:49.464Z,0.20
2023-05-10T05:23:17.311Z,0.20
2023-05-10T05:25:44.771Z,0.20
2023-05-10T05:28:12.273Z,0.20
2023-05-10T05:30:45.871Z,0.20
2023-05-10T05:33:13.456Z,0.30
2023-05-10T05:35:40.892Z,0.20
2023-05-10T05:38:08.305Z,0.20
2023-05-10T05:40:35.823Z,0.30
2023-05-10T05:43:03.329Z,0.30
2023-05-10T05:45:30.750Z,0.22
2023-05-10T05:47:59.654Z,0.20
2023-05-10T05:50:27.310Z,0.20
2023-05-10T05:52:54.809Z,0.30
2023-05-10T05:55:22.294Z,0.20
2023-05-10T05:57:49.671Z,0.20
2023-05-10T06:00:17.421Z,0.25
2023-05-10T06:02:46.691Z,0.20
2023-05-10T06:05:16.252Z,0.30
2023-05-10T06:07:43.932Z,0.20
2023-05-10T06:10:11.554Z,0.30
2023-05-10T06:12:38.974Z,0.20
2023-05-10T06:15:06.851Z,0.25
2023-05-10T06:17:34.313Z,0.20
2023-05-10T06:20:01.743Z,0.20
2023-05-10T06:22:30.554Z,0.20
2023-05-10T06:24:58.119Z,0.20
2023-05-10T06:27:25.599Z,0.20
2023-05-10T06:30:02.043Z,0.20
2023-05-10T06:32:36.943Z,0.20
2023-05-10T06:35:04.588Z,0.28
2023-05-10T06:37:33.370Z,0.20
2023-05-10T06:40:01.516Z,0.20
2023-05-10T06:42:29.020Z,0.30
2023-05-10T06:44:56.512Z,0.20
2023-05-10T06:47:23.936Z,0.20
2023-05-10T06:49:51.331Z,0.20
2023-05-10T06:52:18.753Z,0.20
2023-05-10T06:54:47.519Z,0.30
2023-05-10T06:57:27.519Z,0.20
2023-05-10T06:59:57.972Z,0.20
2023-05-10T07:02:25.382Z,0.20
2023-05-10T07:04:53.445Z,0.30
2023-05-10T07:07:21.023Z,0.20
2023-05-10T07:09:50.652Z,0.20
2023-05-10T07:12:18.220Z,0.20
2023-05-10T07:14:45.881Z,0.20
2023-05-10T07:17:13.482Z,0.20
2023-05-10T07:19:41.145Z,0.20
2023-05-10T07:22:08.622Z,0.20
2023-05-10T07:24:36.102Z,0.20
2023-05-10T07:27:05.185Z,0.20
2023-05-10T07:29:32.647Z,0.20
2023-05-10T07:32:00.214Z,0.20
2023-05-10T07:34:28.083Z,0.20
2023-05-10T07:36:55.803Z,0.20
2023-05-10T07:39:27.811Z,0.20
2023-05-10T07:41:55.597Z,0.10
2023-05-10T07:44:24.338Z,0.10
2023-05-10T07:46:52.200Z,0.15
2023-05-10T07:49:19.625Z,0.10
2023-05-10T07:51:47.092Z,0.20
2023-05-10T07:54:14.558Z,0.10
2023-05-10T07:56:46.373Z,0.20
2023-05-10T07:59:16.573Z,0.10
2023-05-10T08:01:45.414Z,0.10
2023-05-10T08:04:13.453Z,0.20
2023-05-10T08:06:41.484Z,0.20
2023-05-10T08:09:09.206Z,0.10
2023-05-10T08:11:36.748Z,0.10
2023-05-10T08:14:04.209Z,0.20
2023-05-10T08:16:31.652Z,0.20
2023-05-10T08:19:00.570Z,0.10
2023-05-10T08:21:28.140Z,0.10
2023-05-10T08:23:55.733Z,0.10
2023-05-10T08:26:23.352Z,0.10
2023-05-10T08:28:50.856Z,0.10
2023-05-10T08:31:19.793Z,0.10
2023-05-10T08:33:47.216Z,0.10
2023-05-10T08:36:20.571Z,0.10
2023-05-10T08:38:49.157Z,0.10
2023-05-10T08:41:17.999Z,0.10
2023-05-10T08:43:47.172Z,0.08
2023-05-10T08:46:17.383Z,0.00
2023-05-10T08:48:45.202Z,0.10
2023-05-10T08:51:14.912Z,0.10
2023-05-10T08:53:43.867Z,0.10
2023-05-10T08:56:11.386Z,0.10
2023-05-10T08:58:38.835Z,0.00
2023-05-10T09:01:06.896Z,0.00
2023-05-10T09:03:34.344Z,0.03
2023-05-10T09:06:01.834Z,0.00
2023-05-10T09:08:29.839Z,0.00
2023-05-10T09:10:58.695Z,0.10
2023-05-10T09:13:26.962Z,0.10
2023-05-10T09:15:54.850Z,0.10
2023-05-10T09:18:22.333Z,0.10
2023-05-10T09:20:50.310Z,0.10
2023-05-10T09:23:17.778Z,0.10
2023-05-10T09:25:45.198Z,0.10
2023-05-10T09:28:14.013Z,0.10
2023-05-10T09:30:41.516Z,0.10
2023-05-10T09:33:08.969Z,0.10
2023-05-10T09:35:37.066Z,0.20
2023-05-10T09:38:05.343Z,0.10
2023-05-10T09:40:32.955Z,0.20
2023-05-10T09:43:01.765Z,0.20
2023-05-10T09:45:31.602Z,0.20
2023-05-10T09:47:59.728Z,0.10
2023-05-10T09:50:27.608Z,0.20
2023-05-10T09:52:55.745Z,0.20
2023-05-10T09:55:24.844Z,0.20
2023-05-10T09:58:01.468Z,0.20
2023-05-10T10:00:30.448Z,0.13
2023-05-10T10:02:58.496Z,0.10
2023-05-10T10:05:29.916Z,0.10
2023-05-10T10:07:58.156Z,0.20
2023-05-10T10:10:25.977Z,0.10
2023-05-10T10:12:53.486Z,0.20
2023-05-10T10:15:21.849Z,0.20
2023-05-10T10:17:51.303Z,0.20
2023-05-10T10:20:19.688Z,0.20
2023-05-10T10:22:48.145Z,0.15
2023-05-10T10:25:16.839Z,0.20
2023-05-10T10:27:47.781Z,0.20
2023-05-10T10:30:19.774Z,0.20
2023-05-10T10:33:07.976Z,0.20
2023-05-10T10:35:47.456Z,0.17
2023-05-10T10:38:15.252Z,0.10
2023-05-10T10:40:43.035Z,0.20
2023-05-10T10:43:23.771Z,0.20
2023-05-10T10:46:06.785Z,0.20
2023-05-10T10:48:34.239Z,0.15
2023-05-10T10:51:03.040Z,0.17
2023-05-10T10:53:30.828Z,0.10
2023-05-10T10:56:07.046Z,0.10
2023-05-10T10:58:36.518Z,0.20
2023-05-10T11:01:14.457Z,0.10
2023-05-10T11:03:42.088Z,0.20
2023-05-10T11:06:10.877Z,0.10
2023-05-10T11:08:44.087Z,0.15
2023-05-10T11:11:11.519Z,0.20
2023-05-10T11:13:42.265Z,0.10
2023-05-10T11:16:19.672Z,0.20
2023-05-10T11:18:59.251Z,0.20
2023-05-10T11:21:28.062Z,0.20
2023-05-10T11:23:58.137Z,0.20
2023-05-10T11:26:27.003Z,0.20
2023-05-10T11:28:56.193Z,0.20
2023-05-10T11:31:24.612Z,0.20
2023-05-10T11:33:52.779Z,0.20
2023-05-10T11:36:21.238Z,0.20
2023-05-10T11:38:50.451Z,0.20
2023-05-10T11:41:19.380Z,0.20
2023-05-10T11:43:48.646Z,0.20
2023-05-10T11:46:16.244Z,0.20
2023-05-10T11:48:44.625Z,0.20
2023-05-10T11:51:12.648Z,0.20
2023-05-10T11:53:40.062Z,0.20
2023-05-10T11:56:09.692Z,0.20
2023-05-10T11:58:37.703Z,0.20
2023-05-10T12:01:05.943Z,0.20
2023-05-10T12:03:33.620Z,0.30
2023-05-10T12:06:02.060Z,0.20
2023-05-10T12:08:30.362Z,0.20
2023-05-10T12:11:06.179Z,0.20
2023-05-10T12:13:39.127Z,0.20
2023-05-10T12:16:14.582Z,0.20
2023-05-10T12:18:42.261Z,0.22
2023-05-10T12:21:11.240Z,0.20
2023-05-10T12:23:38.725Z,0.20
2023-05-10T12:26:06.589Z,0.20
2023-05-10T12:28:36.288Z,0.20
2023-05-10T12:31:04.002Z,0.30
2023-05-10T12:33:37.496Z,0.20
2023-05-10T12:36:05.149Z,0.30
2023-05-10T12:38:34.637Z,0.20
2023-05-10T12:41:03.113Z,0.17
2023-05-10T12:43:31.175Z,0.20
2023-05-10T12:46:00.038Z,0.30
2023-05-10T12:48:29.610Z,0.20
2023-05-10T12:50:57.029Z,0.20
2023-05-10T12:53:24.472Z,0.20
2023-05-10T12:55:51.932Z,0.30
2023-05-10T12:58:34.401Z,0.30
2023-05-10T13:01:05.107Z,0.20
2023-05-10T13:03:32.633Z,0.20
2023-05-10T13:06:00.182Z,0.20
2023-05-10T13:08:27.999Z,0.22
2023-05-10T13:10:55.658Z,0.20
2023-05-10T13:13:23.095Z,0.20
2023-05-10T13:15:50.535Z,0.20
2023-05-10T13:18:19.387Z,0.20
2023-05-10T13:20:46.822Z,0.20
2023-05-10T13:23:14.228Z,0.20
2023-05-10T13:25:41.685Z,0.20
2023-05-10T13:28:09.157Z,0.20
2023-05-10T13:30:36.750Z,0.20
2023-05-10T13:33:04.248Z,0.25
2023-05-10T13:35:33.085Z,0.20
2023-05-10T13:38:00.536Z,0.20
2023-05-10T13:40:28.983Z,0.20
2023-05-10T13:42:56.441Z,0.20
2023-05-10T13:45:23.934Z,0.20
2023-05-10T13:47:51.412Z,0.20
2023-05-10T13:50:19.011Z,0.20
2023-05-10T13:52:47.758Z,0.20
2023-05-10T13:55:15.613Z,0.20
2023-05-10T13:57:44.101Z,0.20
2023-05-10T14:00:12.121Z,0.20
2023-05-10T14:02:39.616Z,0.20
2023-05-10T14:05:07.634Z,0.20
2023-05-10T14:07:35.286Z,0.20
2023-05-10T14:10:04.450Z,0.20
2023-05-10T14:12:31.936Z,0.20
2023-05-10T14:14:59.495Z,0.20
2023-05-10T14:17:27.076Z,0.20
2023-05-10T14:19:54.875Z,0.20
2023-05-10T14:22:22.932Z,0.10
2023-05-10T14:24:51.045Z,0.20
2023-05-10T14:27:20.401Z,0.20
2023-05-10T14:29:47.942Z,0.20
2023-05-10T14:32:15.525Z,0.20
2023-05-10T14:34:43.127Z,0.20
2023-05-10T14:37:12.004Z,0.20
2023-05-10T14:39:41.447Z,0.10
2023-05-10T14:42:08.933Z,0.20
2023-05-10T14:44:38.297Z,0.20
2023-05-10T14:47:06.102Z,0.20
2023-05-10T14:49:33.486Z,0.20
2023-05-10T14:52:00.907Z,0.20
2023-05-10T14:54:28.451Z,0.20
2023-05-10T14:56:55.893Z,0.20
2023-05-10T14:59:23.421Z,0.20
2023-05-10T15:01:52.626Z,0.20
2023-05-10T15:04:20.498Z,0.30
2023-05-10T15:06:48.536Z,0.20
2023-05-10T15:09:17.247Z,0.20
2023-05-10T15:11:45.413Z,0.20
2023-05-10T15:14:13.154Z,0.20
2023-05-10T15:16:40.600Z,0.20
2023-05-10T15:19:09.488Z,0.20
2023-05-10T15:21:39.687Z,0.20
2023-05-10T15:24:07.257Z,0.20
2023-05-10T15:26:34.691Z,0.10
2023-05-10T15:29:02.117Z,0.20
2023-05-10T15:31:29.709Z,0.22
2023-05-10T15:33:58.636Z,0.22
2023-05-10T15:36:27.392Z,0.20
2023-05-10T15:38:55.547Z,0.22
2023-05-10T15:41:22.972Z,0.20
2023-05-10T15:43:50.386Z,0.20
2023-05-10T15:46:17.856Z,0.22
2023-05-10T15:48:45.306Z,0.30
2023-05-10T15:51:12.749Z,0.20
2023-05-10T15:53:52.766Z,0.30
2023-05-10T15:56:28.172Z,0.20
2023-05-10T15:58:55.722Z,0.20
2023-05-10T16:01:23.217Z,0.20
2023-05-10T16:03:50.742Z,0.20
2023-05-10T16:06:18.354Z,0.20
2023-05-10T16:08:47.183Z,0.20
2023-05-10T16:11:14.633Z,0.22
2023-05-10T16:13:42.022Z,0.20
2023-05-10T16:16:09.686Z,0.30
2023-05-10T16:18:37.166Z,0.20
2023-05-10T16:21:04.729Z,0.20
2023-05-10T16:23:32.219Z,0.20
2023-05-10T16:26:00.971Z,0.20
2023-05-10T16:28:29.189Z,0.20
2023-05-10T16:30:56.659Z,0.30
2023-05-10T16:33:24.138Z,0.22
2023-05-10T16:35:51.591Z,0.20
2023-05-10T16:38:19.016Z,0.25
2023-05-10T16:40:46.475Z,0.20
2023-05-10T16:43:15.280Z,0.30
2023-05-10T16:45:43.148Z,0.30
2023-05-10T16:48:10.602Z,0.30
2023-05-10T16:50:38.146Z,0.20
2023-05-10T16:53:05.603Z,0.30
2023-05-10T16:55:32.994Z,0.30
2023-05-10T16:58:00.881Z,0.20
2023-05-10T17:00:29.942Z,0.28
2023-05-10T17:02:57.449Z,0.30
2023-05-10T17:05:24.954Z,0.20
2023-05-10T17:07:52.395Z,0.40
2023-05-10T17:10:19.956Z,0.30
2023-05-10T17:12:47.441Z,0.30
2023-05-10T17:15:16.414Z,0.30
2023-05-10T17:17:45.468Z,0.30
2023-05-10T17:20:13.269Z,0.20
2023-05-10T17:22:40.830Z,0.30
2023-05-10T17:25:08.686Z,0.30
2023-05-10T17:27:36.337Z,0.20
2023-05-10T17:30:03.899Z,0.30
2023-05-10T17:32:31.373Z,0.20
2023-05-10T17:35:00.380Z,0.35
2023-05-10T17:37:28.125Z,0.20
2023-05-10T17:39:55.571Z,0.30
2023-05-10T17:42:22.986Z,0.22
2023-05-10T17:44:50.540Z,0.28
2023-05-10T17:47:18.402Z,0.20
2023-05-10T17:49:45.820Z,0.30
2023-05-10T17:52:14.650Z,0.30
2023-05-10T17:54:42.063Z,0.20
2023-05-10T17:57:09.484Z,0.30
2023-05-10T17:59:37.063Z,0.30
2023-05-10T18:02:04.488Z,0.30
2023-05-10T18:04:32.795Z,0.38
2023-05-10T18:07:02.054Z,0.20
2023-05-10T18:09:30.888Z,0.38
2023-05-10T18:11:58.374Z,0.30
2023-05-10T18:14:36.461Z,0.32
2023-05-10T18:17:07.087Z,0.30
2023-05-10T18:19:34.576Z,0.32
2023-05-10T18:22:01.998Z,0.30
2023-05-10T18:24:38.904Z,0.25
2023-05-10T18:27:07.500Z,0.20
2023-05-10T18:29:35.056Z,0.28
2023-05-10T18:32:02.900Z,0.30
2023-05-10T18:34:30.346Z,0.30
2023-05-10T18:36:57.917Z,0.30
2023-05-10T18:39:25.367Z,0.30
2023-05-10T18:41:54.177Z,0.35
2023-05-10T18:44:23.122Z,0.40
2023-05-10T18:46:54.030Z,0.30
2023-05-10T18:49:21.591Z,0.25
2023-05-10T18:51:49.070Z,0.30
2023-05-10T18:54:16.769Z,0.40
2023-05-10T18:56:45.332Z,0.40
2023-05-10T18:59:14.253Z,0.30
2023-05-10T19:01:42.054Z,0.40
2023-05-10T19:04:09.587Z,0.30
2023-05-10T19:06:37.219Z,0.45
2023-05-10T19:09:04.794Z,0.30
2023-05-10T19:11:34.501Z,0.30
2023-05-10T19:14:02.273Z,0.30
2023-05-10T19:16:31.213Z,0.30
2023-05-10T19:18:59.303Z,0.20
2023-05-10T19:21:27.224Z,0.30
2023-05-10T19:23:57.049Z,0.30
2023-05-10T19:26:24.529Z,0.30
2023-05-10T19:28:52.388Z,0.30
2023-05-10T19:31:20.017Z,0.30
2023-05-10T19:33:49.078Z,0.30
2023-05-10T19:36:16.511Z,0.30
2023-05-10T19:38:43.971Z,0.30
2023-05-10T19:41:11.622Z,0.30
2023-05-10T19:43:39.720Z,0.45
2023-05-10T19:46:08.861Z,0.30
2023-05-10T19:48:36.362Z,0.30
2023-05-10T19:51:08.491Z,0.30
2023-05-10T19:53:36.847Z,0.30
2023-05-10T19:56:05.129Z,0.30
2023-05-10T19:58:33.123Z,0.40
2023-05-10T20:01:00.704Z,0.30
2023-05-10T20:03:28.478Z,0.35
2023-05-10T20:05:55.978Z,0.40
2023-05-10T20:08:25.418Z,0.40
2023-05-10T20:10:53.088Z,0.40
2023-05-10T20:13:20.537Z,0.40
2023-05-10T20:15:48.036Z,0.40
2023-05-10T20:18:15.547Z,0.40
2023-05-10T20:20:43.150Z,0.50
2023-05-10T20:23:10.663Z,0.40
2023-05-10T20:25:39.426Z,0.30
2023-05-10T20:28:08.396Z,0.38
2023-05-10T20:30:35.822Z,0.30
2023-05-10T20:33:04.173Z,0.38
2023-05-10T20:35:32.882Z,0.30
2023-05-10T20:38:01.995Z,0.43
2023-05-10T20:40:29.396Z,0.40
2023-05-10T20:42:58.172Z,0.40
2023-05-10T20:45:25.656Z,0.30
2023-05-10T20:47:53.735Z,0.40
2023-05-10T20:50:21.298Z,0.40
2023-05-10T20:52:50.884Z,0.30
2023-05-10T20:55:18.602Z,0.50
2023-05-10T20:57:46.405Z,0.30
2023-05-10T21:00:15.950Z,0.35
2023-05-10T21:02:44.219Z,0.40
2023-05-10T21:05:11.810Z,0.40
2023-05-10T21:07:39.672Z,0.40
2023-05-10T21:10:08.107Z,0.30
2023-05-10T21:12:35.724Z,0.40
2023-05-10T21:15:04.937Z,0.43
2023-05-10T21:17:33.763Z,0.40
2023-05-10T21:20:01.692Z,0.30
2023-05-10T21:22:29.086Z,0.40
2023-05-10T21:24:56.521Z,0.30
2023-05-10T21:27:23.946Z,0.40
2023-05-10T21:29:51.441Z,0.40
2023-05-10T21:32:18.944Z,0.40
2023-05-10T21:34:47.727Z,0.30
2023-05-10T21:37:16.060Z,0.45
2023-05-10T21:39:43.525Z,0.30
2023-05-10T21:42:10.962Z,0.30
2023-05-10T21:44:38.624Z,0.50
2023-05-10T21:47:06.318Z,0.40
2023-05-10T21:49:33.762Z,0.30
2023-05-10T21:52:02.641Z,0.40
2023-05-10T21:54:30.076Z,0.30
2023-05-10T21:56:57.489Z,0.40
2023-05-10T21:59:24.924Z,0.32
2023-05-10T22:01:52.330Z,0.30
2023-05-10T22:04:19.726Z,0.40
2023-05-10T22:06:47.785Z,0.40
2023-05-10T22:09:16.728Z,0.40
2023-05-10T22:11:44.284Z,0.40
2023-05-10T22:14:11.870Z,0.40
2023-05-10T22:16:39.347Z,0.40
2023-05-10T22:19:06.991Z,0.30
2023-05-10T22:21:34.537Z,0.30
2023-05-10T22:24:01.961Z,0.30
2023-05-10T22:26:30.802Z,0.40
2023-05-10T22:28:58.284Z,0.40
2023-05-10T22:31:25.843Z,0.30
2023-05-10T22:33:53.297Z,0.35
2023-05-10T22:36:20.933Z,0.40
2023-05-10T22:38:48.344Z,0.30
2023-05-10T22:41:15.759Z,0.40
2023-05-10T22:43:44.870Z,0.30
2023-05-10T22:46:13.422Z,0.30
2023-05-10T22:48:41.423Z,0.40
2023-05-10T22:51:08.888Z,0.40
2023-05-10T22:53:36.332Z,0.32
2023-05-10T22:56:03.848Z,0.30
2023-05-10T22:58:32.254Z,0.40
2023-05-10T23:01:01.114Z,0.40
2023-05-10T23:03:28.524Z,0.40
2023-05-10T23:05:55.928Z,0.40
2023-05-10T23:08:23.364Z,0.40
2023-05-10T23:10:51.030Z,0.40
2023-05-10T23:13:19.813Z,0.40
2023-05-10T23:15:47.294Z,0.35
2023-05-10T23:18:16.147Z,0.35
2023-05-10T23:20:43.861Z,0.40
2023-05-10T23:23:11.356Z,0.30
2023-05-10T23:25:39.002Z,0.30
2023-05-10T23:28:06.665Z,0.40
2023-05-10T23:30:34.220Z,0.40
2023-05-10T23:33:01.702Z,0.47
2023-05-10T23:35:30.524Z,0.40
2023-05-10T23:37:58.126Z,0.50
2023-05-10T23:40:25.601Z,0.40
2023-05-10T23:42:53.033Z,0.30
2023-05-10T23:45:20.515Z,0.38
2023-05-10T23:47:48.001Z,0.40
2023-05-10T23:50:15.700Z,0.30
2023-05-10T23:52:44.579Z,0.40
2023-05-10T23:55:12.288Z,0.40
2023-05-10T23:57:39.696Z,0.40
